createdAt,value
2018-06-19T00:00:28.693Z,940.09
2018-06-19T00:01:28.706Z,940.11
2018-06-19T00:02:28.822Z,940.17
2018-06-19T00:03:28.731Z,940.19
2018-06-19T00:04:28.747Z,940.16
2018-06-19T00:05:28.755Z,940.20
2018-06-19T00:06:28.752Z,940.17
2018-06-19T00:07:28.864Z,940.15
2018-06-19T00:09:28.803Z,940.06
2018-06-19T00:10:28.829Z,940.04
2018-06-19T00:11:28.838Z,940.00
2018-06-19T00:12:28.858Z,939.92
2018-06-19T00:13:28.965Z,939.92
2018-06-19T00:14:28.873Z,939.89
2018-06-19T00:15:28.900Z,939.92
2018-06-19T00:16:28.914Z,939.94
2018-06-19T00:17:28.920Z,939.93
2018-06-19T00:18:29.046Z,939.98
2018-06-19T00:19:28.929Z,939.96
2018-06-19T00:20:28.975Z,940.02
2018-06-19T00:21:28.974Z,940.02
2018-06-19T00:22:28.992Z,940.00
2018-06-19T00:23:29.197Z,940.05
2018-06-19T00:24:28.978Z,940.06
2018-06-19T00:25:29.021Z,940.03
2018-06-19T00:26:29.021Z,940.04
2018-06-19T00:27:29.054Z,940.06
2018-06-19T00:28:29.155Z,940.12
2018-06-19T00:29:29.067Z,940.09
2018-06-19T00:30:29.099Z,940.13
2018-06-19T00:31:29.087Z,940.13
2018-06-19T00:32:29.105Z,940.14
2018-06-19T00:33:29.212Z,940.11
2018-06-19T00:34:29.131Z,940.14
2018-06-19T00:35:29.128Z,940.11
2018-06-19T00:36:29.137Z,940.10
2018-06-19T00:37:29.142Z,940.09
2018-06-19T00:38:29.272Z,940.06
2018-06-19T00:39:29.184Z,940.07
2018-06-19T00:40:29.195Z,940.08
2018-06-19T00:41:29.232Z,940.09
2018-06-19T00:42:29.227Z,940.10
2018-06-19T00:43:29.329Z,940.09
2018-06-19T00:44:29.252Z,940.08
2018-06-19T00:45:29.275Z,940.12
2018-06-19T00:46:29.286Z,940.11
2018-06-19T00:47:29.286Z,940.14
2018-06-19T00:48:29.385Z,940.18
2018-06-19T00:49:29.290Z,940.19
2018-06-19T00:50:29.296Z,940.16
2018-06-19T00:51:29.342Z,940.23
2018-06-19T00:52:29.353Z,940.23
2018-06-19T00:53:29.457Z,940.21
2018-06-19T00:54:29.360Z,940.21
2018-06-19T00:55:29.375Z,940.21
2018-06-19T00:56:29.411Z,940.18
2018-06-19T00:57:29.418Z,940.17
2018-06-19T00:58:29.422Z,940.21
2018-06-19T00:59:29.542Z,940.25
2018-06-19T01:00:29.444Z,940.20
2018-06-19T01:01:29.456Z,940.21
2018-06-19T01:02:29.475Z,940.22
2018-06-19T01:03:29.478Z,940.21
2018-06-19T01:04:29.701Z,940.23
2018-06-19T01:05:29.503Z,940.21
2018-06-19T01:06:29.532Z,940.22
2018-06-19T01:07:29.536Z,940.19
2018-06-19T01:08:29.541Z,940.21
2018-06-19T01:09:29.751Z,940.15
2018-06-19T01:10:29.563Z,940.15
2018-06-19T01:11:29.596Z,940.17
2018-06-19T01:12:29.598Z,940.11
2018-06-19T01:13:29.635Z,940.20
2018-06-19T01:14:29.620Z,940.19
2018-06-19T01:15:29.731Z,940.18
2018-06-19T01:16:29.634Z,940.17
2018-06-19T01:17:29.661Z,940.21
2018-06-19T01:18:29.679Z,940.16
2018-06-19T01:19:29.703Z,940.18
2018-06-19T01:20:29.792Z,940.16
2018-06-19T01:21:29.718Z,940.17
2018-06-19T01:22:29.750Z,940.17
2018-06-19T01:23:29.744Z,940.12
2018-06-19T01:24:29.758Z,940.12
2018-06-19T01:25:29.882Z,940.13
2018-06-19T01:26:29.788Z,940.13
2018-06-19T01:27:29.811Z,940.10
2018-06-19T01:28:29.814Z,940.09
2018-06-19T01:29:29.825Z,940.10
2018-06-19T01:30:29.841Z,940.12
2018-06-19T01:31:29.952Z,940.10
2018-06-19T01:32:29.854Z,940.09
2018-06-19T01:33:29.880Z,940.10
2018-06-19T01:34:29.896Z,940.07
2018-06-19T01:35:29.896Z,940.05
2018-06-19T01:36:30.011Z,940.06
2018-06-19T01:37:29.907Z,940.04
2018-06-19T01:38:29.939Z,940.06
2018-06-19T01:39:29.965Z,940.04
2018-06-19T01:40:29.961Z,940.03
2018-06-19T01:41:30.060Z,940.02
2018-06-19T01:42:29.989Z,939.99
2018-06-19T01:43:30.001Z,940.01
2018-06-19T01:44:30.014Z,940.03
2018-06-19T01:45:30.009Z,940.01
2018-06-19T01:46:30.101Z,940.02
2018-06-19T01:47:30.062Z,940.04
2018-06-19T01:48:30.161Z,940.08
2018-06-19T01:49:30.061Z,940.06
2018-06-19T01:50:30.096Z,940.06
2018-06-19T01:51:30.092Z,940.10
2018-06-19T01:52:30.117Z,940.06
2018-06-19T01:53:30.170Z,940.06
2018-06-19T01:54:30.139Z,940.05
2018-06-19T01:55:30.147Z,940.05
2018-06-19T01:56:30.177Z,940.07
2018-06-19T01:57:30.161Z,940.04
2018-06-19T01:58:30.280Z,940.04
2018-06-19T01:59:30.197Z,940.03
2018-06-19T02:00:30.214Z,940.03
2018-06-19T02:01:30.236Z,940.03
2018-06-19T02:02:30.238Z,940.04
2018-06-19T02:03:30.369Z,940.04
2018-06-19T02:04:30.279Z,940.02
2018-06-19T02:05:30.292Z,940.07
2018-06-19T02:06:30.295Z,940.04
2018-06-19T02:07:30.295Z,940.03
2018-06-19T02:08:30.426Z,940.03
2018-06-19T02:09:30.317Z,940.03
2018-06-19T02:10:30.326Z,940.07
2018-06-19T02:11:30.365Z,940.07
2018-06-19T02:12:30.350Z,940.05
2018-06-19T02:13:30.507Z,940.07
2018-06-19T02:14:30.380Z,940.07
2018-06-19T02:15:30.384Z,940.09
2018-06-19T02:16:30.415Z,940.13
2018-06-19T02:17:30.422Z,940.11
2018-06-19T02:18:30.537Z,940.10
2018-06-19T02:19:30.461Z,940.16
2018-06-19T02:20:30.453Z,940.15
2018-06-19T02:21:30.449Z,940.11
2018-06-19T02:22:30.469Z,940.17
2018-06-19T02:23:30.605Z,940.13
2018-06-19T02:24:30.512Z,940.17
2018-06-19T02:25:30.517Z,940.15
2018-06-19T02:26:30.525Z,940.19
2018-06-19T02:27:30.536Z,940.17
2018-06-19T02:28:30.555Z,940.16
2018-06-19T02:29:30.669Z,940.18
2018-06-19T02:30:30.575Z,940.21
2018-06-19T02:31:30.594Z,940.19
2018-06-19T02:32:30.598Z,940.18
2018-06-19T02:33:30.598Z,940.17
2018-06-19T02:34:30.733Z,940.16
2018-06-19T02:35:30.624Z,940.20
2018-06-19T02:36:30.643Z,940.16
2018-06-19T02:37:30.658Z,940.18
2018-06-19T02:38:30.668Z,940.20
2018-06-19T02:39:30.776Z,940.21
2018-06-19T02:40:30.711Z,940.18
2018-06-19T02:41:30.709Z,940.17
2018-06-19T02:42:30.727Z,940.17
2018-06-19T02:43:30.730Z,940.18
2018-06-19T02:44:30.741Z,940.17
2018-06-19T02:45:30.866Z,940.20
2018-06-19T02:46:30.757Z,940.16
2018-06-19T02:47:30.791Z,940.18
2018-06-19T02:48:30.776Z,940.17
2018-06-19T02:49:30.804Z,940.19
2018-06-19T02:50:30.927Z,940.16
2018-06-19T02:51:30.819Z,940.17
2018-06-19T02:52:30.848Z,940.17
2018-06-19T02:53:30.862Z,940.15
2018-06-19T02:54:30.890Z,940.14
2018-06-19T02:55:30.981Z,940.17
2018-06-19T02:56:30.902Z,940.14
2018-06-19T02:57:30.902Z,940.17
2018-06-19T02:58:30.907Z,940.16
2018-06-19T02:59:30.936Z,940.17
2018-06-19T03:00:31.033Z,940.11
2018-06-19T03:01:30.963Z,940.12
2018-06-19T03:02:30.964Z,940.11
2018-06-19T03:03:30.970Z,940.09
2018-06-19T03:04:31.102Z,940.09
2018-06-19T03:05:31.018Z,940.08
2018-06-19T03:06:31.018Z,940.06
2018-06-19T03:07:31.037Z,940.08
2018-06-19T03:08:31.045Z,940.07
2018-06-19T03:09:31.145Z,940.07
2018-06-19T03:10:31.065Z,940.06
2018-06-19T03:11:31.086Z,940.04
2018-06-19T03:12:31.106Z,940.02
2018-06-19T03:13:31.099Z,939.97
2018-06-19T03:14:31.269Z,939.96
2018-06-19T03:15:31.126Z,939.95
2018-06-19T03:16:31.164Z,939.94
2018-06-19T03:17:31.149Z,939.91
2018-06-19T03:18:31.185Z,939.94
2018-06-19T03:19:31.275Z,939.91
2018-06-19T03:20:31.185Z,939.90
2018-06-19T03:21:31.209Z,939.90
2018-06-19T03:22:31.226Z,939.91
2018-06-19T03:23:31.219Z,939.87
2018-06-19T03:24:31.334Z,939.91
2018-06-19T03:25:31.256Z,939.87
2018-06-19T03:26:31.275Z,939.88
2018-06-19T03:27:31.276Z,939.87
2018-06-19T03:28:31.296Z,939.87
2018-06-19T03:29:31.403Z,939.85
2018-06-19T03:30:31.442Z,939.89
2018-06-19T03:31:31.356Z,939.91
2018-06-19T03:32:31.364Z,939.93
2018-06-19T03:33:31.347Z,939.93
2018-06-19T03:34:31.429Z,939.93
2018-06-19T03:35:31.378Z,939.92
2018-06-19T03:36:31.400Z,939.94
2018-06-19T03:37:31.396Z,939.91
2018-06-19T03:38:31.420Z,939.90
2018-06-19T03:39:31.526Z,939.96
2018-06-19T03:40:31.442Z,939.92
2018-06-19T03:41:31.460Z,939.89
2018-06-19T03:42:31.467Z,939.90
2018-06-19T03:43:31.477Z,939.93
2018-06-19T03:44:31.597Z,939.90
2018-06-19T03:45:31.504Z,939.90
2018-06-19T03:46:31.527Z,939.94
2018-06-19T03:47:31.549Z,939.91
2018-06-19T03:48:31.534Z,939.96
2018-06-19T03:49:31.548Z,939.97
2018-06-19T03:50:31.692Z,939.99
2018-06-19T03:51:31.579Z,939.99
2018-06-19T03:52:31.592Z,939.93
2018-06-19T03:53:31.606Z,939.98
2018-06-19T03:54:31.619Z,939.97
2018-06-19T03:55:31.738Z,939.98
2018-06-19T03:56:31.648Z,939.97
2018-06-19T03:57:31.658Z,939.91
2018-06-19T03:58:31.672Z,939.96
2018-06-19T03:59:31.689Z,939.93
2018-06-19T04:00:31.785Z,939.93
2018-06-19T04:01:31.699Z,939.93
2018-06-19T04:02:31.737Z,939.94
2018-06-19T04:03:31.731Z,939.94
2018-06-19T04:04:31.735Z,939.95
2018-06-19T04:05:31.767Z,939.91
2018-06-19T04:06:31.877Z,939.89
2018-06-19T04:07:31.784Z,939.87
2018-06-19T04:08:31.790Z,939.88
2018-06-19T04:09:31.817Z,939.85
2018-06-19T04:10:31.838Z,939.85
2018-06-19T04:11:31.942Z,939.85
2018-06-19T04:12:31.853Z,939.85
2018-06-19T04:13:31.847Z,939.83
2018-06-19T04:14:31.868Z,939.80
2018-06-19T04:15:31.882Z,939.84
2018-06-19T04:16:32.008Z,939.86
2018-06-19T04:17:31.898Z,939.82
2018-06-19T04:18:31.910Z,939.79
2018-06-19T04:19:31.917Z,939.82
2018-06-19T04:20:31.936Z,939.79
2018-06-19T04:21:32.050Z,939.77
2018-06-19T04:22:31.967Z,939.75
2018-06-19T04:23:31.980Z,939.71
2018-06-19T04:24:32.008Z,939.73
2018-06-19T04:25:32.005Z,939.69
2018-06-19T04:26:32.109Z,939.71
2018-06-19T04:27:32.035Z,939.71
2018-06-19T04:28:32.041Z,939.69
2018-06-19T04:29:32.043Z,939.68
2018-06-19T04:30:32.056Z,939.69
2018-06-19T04:31:32.177Z,939.69
2018-06-19T04:32:32.076Z,939.67
2018-06-19T04:33:32.105Z,939.68
2018-06-19T04:34:32.119Z,939.70
2018-06-19T04:35:32.125Z,939.67
2018-06-19T04:36:32.243Z,939.67
2018-06-19T04:37:32.273Z,939.69
2018-06-19T04:38:32.175Z,939.69
2018-06-19T04:39:32.168Z,939.65
2018-06-19T04:40:32.187Z,939.68
2018-06-19T04:41:32.316Z,939.66
2018-06-19T04:42:32.214Z,939.65
2018-06-19T04:43:32.231Z,939.67
2018-06-19T04:44:32.257Z,939.68
2018-06-19T04:45:32.242Z,939.69
2018-06-19T04:46:32.372Z,939.66
2018-06-19T04:47:32.273Z,939.68
2018-06-19T04:48:32.275Z,939.66
2018-06-19T04:49:32.315Z,939.66
2018-06-19T04:50:32.311Z,939.64
2018-06-19T04:51:32.326Z,939.67
2018-06-19T04:52:32.441Z,939.71
2018-06-19T04:53:32.338Z,939.66
2018-06-19T04:54:32.361Z,939.65
2018-06-19T04:55:32.374Z,939.64
2018-06-19T04:56:32.389Z,939.61
2018-06-19T04:57:32.487Z,939.64
2018-06-19T04:58:32.410Z,939.59
2018-06-19T04:59:32.418Z,939.59
2018-06-19T05:00:32.437Z,939.60
2018-06-19T05:01:32.445Z,939.58
2018-06-19T05:02:32.566Z,939.55
2018-06-19T05:03:32.467Z,939.53
2018-06-19T05:04:32.502Z,939.54
2018-06-19T05:05:32.486Z,939.46
2018-06-19T05:06:32.526Z,939.51
2018-06-19T05:07:32.538Z,939.50
2018-06-19T05:08:32.648Z,939.50
2018-06-19T05:09:32.670Z,939.48
2018-06-19T05:10:32.582Z,939.49
2018-06-19T05:11:32.586Z,939.46
2018-06-19T05:12:32.601Z,939.43
2018-06-19T05:13:32.706Z,939.43
2018-06-19T05:14:32.616Z,939.42
2018-06-19T05:15:32.625Z,939.41
2018-06-19T05:16:32.645Z,939.42
2018-06-19T05:17:32.640Z,939.45
2018-06-19T05:18:32.749Z,939.44
2018-06-19T05:19:32.666Z,939.43
2018-06-19T05:20:32.697Z,939.48
2018-06-19T05:21:32.690Z,939.45
2018-06-19T05:22:32.702Z,939.43
2018-06-19T05:23:32.841Z,939.46
2018-06-19T05:24:32.750Z,939.47
2018-06-19T05:25:32.763Z,939.46
2018-06-19T05:26:32.772Z,939.42
2018-06-19T05:27:32.783Z,939.43
2018-06-19T05:28:32.887Z,939.44
2018-06-19T05:29:32.800Z,939.40
2018-06-19T05:30:32.818Z,939.43
2018-06-19T05:31:32.809Z,939.45
2018-06-19T05:32:32.821Z,939.42
2018-06-19T05:33:32.947Z,939.42
2018-06-19T05:34:32.870Z,939.39
2018-06-19T05:35:32.879Z,939.40
2018-06-19T05:36:32.883Z,939.41
2018-06-19T05:37:32.892Z,939.41
2018-06-19T05:38:33.009Z,939.39
2018-06-19T05:39:32.916Z,939.38
2018-06-19T05:40:32.926Z,939.38
2018-06-19T05:41:32.957Z,939.36
2018-06-19T05:42:32.963Z,939.36
2018-06-19T05:43:33.030Z,939.38
2018-06-19T05:44:32.990Z,939.33
2018-06-19T05:45:32.996Z,939.31
2018-06-19T05:46:33.115Z,939.30
2018-06-19T05:47:33.032Z,939.26
2018-06-19T05:48:33.020Z,939.27
2018-06-19T05:49:33.059Z,939.24
2018-06-19T05:50:33.042Z,939.29
2018-06-19T05:51:33.183Z,939.25
2018-06-19T05:52:33.087Z,939.25
2018-06-19T05:53:33.096Z,939.23
2018-06-19T05:54:33.098Z,939.24
2018-06-19T05:55:33.119Z,939.23
2018-06-19T05:56:33.218Z,939.26
2018-06-19T05:57:33.147Z,939.23
2018-06-19T05:58:33.162Z,939.23
2018-06-19T05:59:33.161Z,939.21
2018-06-19T06:00:33.193Z,939.22
2018-06-19T06:01:33.305Z,939.22
2018-06-19T06:02:33.223Z,939.19
2018-06-19T06:03:33.213Z,939.16
2018-06-19T06:04:33.242Z,939.16
2018-06-19T06:05:33.290Z,939.15
2018-06-19T06:06:33.425Z,939.18
2018-06-19T06:07:33.267Z,939.18
2018-06-19T06:08:33.282Z,939.15
2018-06-19T06:09:33.306Z,939.15
2018-06-19T06:10:33.314Z,939.14
2018-06-19T06:11:33.325Z,939.14
2018-06-19T06:12:33.436Z,939.17
2018-06-19T06:13:33.329Z,939.18
2018-06-19T06:14:33.348Z,939.16
2018-06-19T06:15:33.374Z,939.14
2018-06-19T06:16:33.455Z,939.17
2018-06-19T06:17:33.521Z,939.20
2018-06-19T06:18:33.397Z,939.15
2018-06-19T06:19:33.445Z,939.17
2018-06-19T06:20:33.419Z,939.15
2018-06-19T06:21:33.432Z,939.20
2018-06-19T06:22:33.444Z,939.15
2018-06-19T06:23:33.564Z,939.13
2018-06-19T06:24:33.485Z,939.14
2018-06-19T06:25:33.512Z,939.06
2018-06-19T06:26:33.504Z,939.10
2018-06-19T06:27:33.514Z,939.09
2018-06-19T06:28:33.532Z,939.10
2018-06-19T06:29:33.641Z,939.07
2018-06-19T06:30:33.548Z,939.01
2018-06-19T06:31:33.572Z,939.04
2018-06-19T06:32:33.567Z,939.02
2018-06-19T06:33:33.605Z,939.01
2018-06-19T06:34:33.692Z,938.99
2018-06-19T06:35:33.633Z,938.99
2018-06-19T06:36:33.611Z,939.01
2018-06-19T06:37:33.649Z,938.98
2018-06-19T06:38:33.644Z,938.92
2018-06-19T06:39:33.770Z,938.94
2018-06-19T06:40:33.668Z,938.92
2018-06-19T06:41:33.685Z,938.95
2018-06-19T06:42:33.700Z,938.95
2018-06-19T06:43:33.707Z,938.96
2018-06-19T06:44:33.827Z,938.95
2018-06-19T06:45:33.743Z,938.91
2018-06-19T06:46:33.753Z,938.91
2018-06-19T06:47:33.749Z,938.88
2018-06-19T06:48:33.792Z,938.85
2018-06-19T06:49:33.848Z,938.85
2018-06-19T06:50:33.876Z,938.82
2018-06-19T06:51:33.821Z,938.77
2018-06-19T06:52:33.829Z,938.80
2018-06-19T06:53:33.822Z,938.79
2018-06-19T06:54:33.947Z,938.78
2018-06-19T06:55:33.865Z,938.79
2018-06-19T06:56:33.883Z,938.78
2018-06-19T06:57:33.883Z,938.78
2018-06-19T06:58:33.915Z,938.75
2018-06-19T06:59:34.021Z,938.78
2018-06-19T07:00:33.906Z,938.73
2018-06-19T07:01:33.944Z,938.75
2018-06-19T07:02:33.954Z,938.74
2018-06-19T07:03:33.972Z,938.76
2018-06-19T07:04:33.987Z,938.74
2018-06-19T07:05:34.077Z,938.79
2018-06-19T07:06:33.981Z,938.74
2018-06-19T07:07:34.011Z,938.77
2018-06-19T07:08:34.023Z,938.71
2018-06-19T07:09:34.034Z,938.74
2018-06-19T07:10:34.143Z,938.69
2018-06-19T07:11:34.054Z,938.66
2018-06-19T07:12:34.082Z,938.65
2018-06-19T07:13:34.159Z,938.63
2018-06-19T07:14:34.083Z,938.62
2018-06-19T07:15:34.275Z,938.62
2018-06-19T07:16:34.124Z,938.62
2018-06-19T07:17:34.122Z,938.62
2018-06-19T07:18:34.130Z,938.62
2018-06-19T07:19:34.165Z,938.66
2018-06-19T07:20:34.265Z,938.64
2018-06-19T07:21:34.182Z,938.65
2018-06-19T07:22:34.213Z,938.67
2018-06-19T07:23:34.205Z,938.64
2018-06-19T07:24:34.218Z,938.64
2018-06-19T07:25:34.311Z,938.63
2018-06-19T07:26:34.229Z,938.59
2018-06-19T07:27:34.264Z,938.64
2018-06-19T07:28:34.250Z,938.63
2018-06-19T07:29:34.282Z,938.64
2018-06-19T07:30:34.394Z,938.64
2018-06-19T07:31:34.297Z,938.63
2018-06-19T07:32:34.306Z,938.61
2018-06-19T07:33:34.311Z,938.62
2018-06-19T07:34:34.326Z,938.61
2018-06-19T07:35:34.447Z,938.59
2018-06-19T07:36:34.344Z,938.65
2018-06-19T07:37:34.358Z,938.61
2018-06-19T07:38:34.391Z,938.71
2018-06-19T07:39:34.418Z,938.63
2018-06-19T07:40:34.507Z,938.70
2018-06-19T07:41:34.434Z,938.69
2018-06-19T07:42:34.435Z,938.68
2018-06-19T07:43:34.444Z,938.67
2018-06-19T07:44:34.448Z,938.66
2018-06-19T07:45:34.554Z,938.66
2018-06-19T07:46:34.478Z,938.65
2018-06-19T07:47:34.505Z,938.66
2018-06-19T07:48:34.492Z,938.67
2018-06-19T07:49:34.577Z,938.69
2018-06-19T07:50:34.539Z,938.70
2018-06-19T07:51:34.644Z,938.70
2018-06-19T07:52:34.547Z,938.71
2018-06-19T07:53:34.571Z,938.68
2018-06-19T07:54:34.579Z,938.70
2018-06-19T07:55:34.596Z,938.70
2018-06-19T07:56:34.692Z,938.69
2018-06-19T07:57:34.625Z,938.69
2018-06-19T07:58:34.623Z,938.69
2018-06-19T07:59:34.650Z,938.73
2018-06-19T08:00:34.654Z,938.76
2018-06-19T08:01:34.774Z,938.75
2018-06-19T08:02:34.669Z,938.74
2018-06-19T08:03:34.694Z,938.78
2018-06-19T08:04:34.685Z,938.77
2018-06-19T08:05:34.698Z,938.80
2018-06-19T08:06:34.820Z,938.79
2018-06-19T08:07:34.732Z,938.80
2018-06-19T08:08:34.735Z,938.79
2018-06-19T08:09:34.748Z,938.78
2018-06-19T08:10:34.758Z,938.79
2018-06-19T08:11:34.890Z,938.77
2018-06-19T08:12:34.794Z,938.79
2018-06-19T08:13:34.880Z,938.76
2018-06-19T08:14:34.818Z,938.76
2018-06-19T08:15:34.840Z,938.74
2018-06-19T08:16:34.960Z,938.71
2018-06-19T08:17:34.908Z,938.73
2018-06-19T08:18:34.881Z,938.72
2018-06-19T08:19:34.899Z,938.71
2018-06-19T08:20:34.902Z,938.70
2018-06-19T08:21:35.013Z,938.72
2018-06-19T08:22:34.920Z,938.73
2018-06-19T08:23:34.946Z,938.76
2018-06-19T08:24:34.928Z,938.77
2018-06-19T08:25:34.953Z,938.77
2018-06-19T08:26:34.986Z,938.80
2018-06-19T08:27:35.028Z,938.83
2018-06-19T08:28:35.005Z,938.84
2018-06-19T08:29:35.004Z,938.86
2018-06-19T08:30:35.005Z,938.90
2018-06-19T08:31:35.027Z,938.89
2018-06-19T08:32:35.146Z,938.91
2018-06-19T08:33:35.051Z,938.90
2018-06-19T08:34:35.073Z,938.92
2018-06-19T08:35:35.073Z,938.91
2018-06-19T08:36:35.085Z,938.90
2018-06-19T08:37:35.151Z,938.91
2018-06-19T08:38:35.106Z,938.91
2018-06-19T08:39:35.228Z,938.90
2018-06-19T08:40:35.145Z,938.91
2018-06-19T08:41:35.155Z,938.93
2018-06-19T08:42:35.149Z,938.92
2018-06-19T08:43:35.162Z,938.93
2018-06-19T08:44:35.278Z,938.98
2018-06-19T08:45:35.314Z,938.95
2018-06-19T08:46:35.209Z,938.96
2018-06-19T08:47:35.225Z,938.99
2018-06-19T08:48:35.216Z,939.00
2018-06-19T08:49:35.356Z,938.97
2018-06-19T08:50:35.251Z,938.97
2018-06-19T08:51:35.267Z,938.97
2018-06-19T08:52:35.266Z,939.01
2018-06-19T08:53:35.291Z,939.01
2018-06-19T08:54:35.389Z,938.99
2018-06-19T08:55:35.304Z,939.01
2018-06-19T08:56:35.322Z,939.02
2018-06-19T08:57:35.328Z,939.02
2018-06-19T08:58:35.360Z,939.04
2018-06-19T08:59:35.469Z,939.06
2018-06-19T09:00:35.374Z,939.07
2018-06-19T09:01:35.396Z,939.09
2018-06-19T09:02:35.384Z,939.12
2018-06-19T09:03:35.406Z,939.11
2018-06-19T09:04:35.529Z,939.09
2018-06-19T09:05:35.431Z,939.13
2018-06-19T09:06:35.435Z,939.12
2018-06-19T09:07:35.474Z,939.11
2018-06-19T09:08:35.476Z,939.11
2018-06-19T09:09:35.582Z,939.11
2018-06-19T09:10:35.482Z,939.11
2018-06-19T09:11:35.508Z,939.12
2018-06-19T09:12:35.521Z,939.15
2018-06-19T09:13:35.530Z,939.15
2018-06-19T09:14:35.625Z,939.16
2018-06-19T09:15:35.563Z,939.18
2018-06-19T09:16:35.558Z,939.21
2018-06-19T09:17:35.577Z,939.16
2018-06-19T09:18:35.604Z,939.20
2018-06-19T09:19:35.705Z,939.17
2018-06-19T09:20:35.623Z,939.19
2018-06-19T09:21:35.609Z,939.19
2018-06-19T09:22:35.641Z,939.20
2018-06-19T09:23:35.648Z,939.21
2018-06-19T09:24:35.650Z,939.21
2018-06-19T09:25:35.756Z,939.21
2018-06-19T09:26:35.673Z,939.17
2018-06-19T09:27:35.701Z,939.18
2018-06-19T09:28:35.712Z,939.20
2018-06-19T09:29:35.711Z,939.20
2018-06-19T09:30:35.817Z,939.19
2018-06-19T09:31:35.778Z,939.25
2018-06-19T09:32:35.756Z,939.26
2018-06-19T09:33:35.758Z,939.26
2018-06-19T09:34:35.806Z,939.25
2018-06-19T09:35:35.952Z,939.28
2018-06-19T09:36:35.788Z,939.26
2018-06-19T09:37:35.820Z,939.30
2018-06-19T09:38:35.815Z,939.29
2018-06-19T09:39:35.829Z,939.28
2018-06-19T09:40:35.952Z,939.32
2018-06-19T09:41:35.858Z,939.30
2018-06-19T09:42:35.859Z,939.34
2018-06-19T09:43:35.878Z,939.33
2018-06-19T09:44:35.901Z,939.31
2018-06-19T09:45:36.068Z,939.33
2018-06-19T09:46:35.924Z,939.33
2018-06-19T09:47:35.943Z,939.31
2018-06-19T09:48:35.939Z,939.30
2018-06-19T09:49:35.966Z,939.28
2018-06-19T09:50:36.012Z,939.30
2018-06-19T09:51:35.994Z,939.30
2018-06-19T09:52:35.993Z,939.33
2018-06-19T09:53:36.116Z,939.30
2018-06-19T09:54:36.012Z,939.30
2018-06-19T09:55:36.019Z,939.32
2018-06-19T09:56:36.040Z,939.38
2018-06-19T09:57:36.052Z,939.38
2018-06-19T09:58:36.143Z,939.33
2018-06-19T09:59:36.100Z,939.37
2018-06-19T10:00:36.066Z,939.38
2018-06-19T10:01:36.101Z,939.38
2018-06-19T10:02:36.126Z,939.38
2018-06-19T10:03:36.208Z,939.39
2018-06-19T10:04:36.125Z,939.40
2018-06-19T10:05:36.202Z,939.44
2018-06-19T10:06:36.261Z,939.47
2018-06-19T10:07:36.150Z,939.46
2018-06-19T10:08:36.281Z,939.43
2018-06-19T10:09:36.172Z,939.50
2018-06-19T10:10:36.216Z,939.47
2018-06-19T10:11:36.200Z,939.47
2018-06-19T10:12:36.229Z,939.48
2018-06-19T10:13:36.281Z,939.49
2018-06-19T10:14:36.236Z,939.48
2018-06-19T10:15:36.270Z,939.52
2018-06-19T10:16:36.265Z,939.59
2018-06-19T10:17:36.380Z,939.55
2018-06-19T10:18:36.294Z,939.54
2018-06-19T10:19:36.508Z,939.55
2018-06-19T10:20:36.323Z,939.51
2018-06-19T10:21:36.329Z,939.53
2018-06-19T10:22:36.553Z,939.58
2018-06-19T10:23:36.358Z,939.56
2018-06-19T10:24:36.375Z,939.58
2018-06-19T10:25:36.391Z,939.58
2018-06-19T10:26:36.393Z,939.64
2018-06-19T10:27:36.522Z,939.63
2018-06-19T10:28:36.503Z,939.68
2018-06-19T10:29:36.427Z,939.66
2018-06-19T10:30:36.668Z,939.65
2018-06-19T10:31:36.459Z,939.69
2018-06-19T10:32:36.464Z,939.64
2018-06-19T10:33:36.491Z,939.69
2018-06-19T10:34:36.475Z,939.69
2018-06-19T10:35:36.703Z,939.70
2018-06-19T10:36:36.504Z,939.71
2018-06-19T10:37:36.517Z,939.75
2018-06-19T10:38:36.553Z,939.75
2018-06-19T10:39:36.558Z,939.74
2018-06-19T10:40:36.666Z,939.76
2018-06-19T10:41:36.593Z,939.82
2018-06-19T10:42:36.604Z,939.81
2018-06-19T10:43:36.620Z,939.79
2018-06-19T10:44:36.632Z,939.77
2018-06-19T10:45:36.747Z,939.79
2018-06-19T10:46:36.634Z,939.81
2018-06-19T10:47:36.666Z,939.81
2018-06-19T10:48:36.669Z,939.78
2018-06-19T10:49:36.687Z,939.83
2018-06-19T10:50:36.906Z,939.78
2018-06-19T10:51:36.723Z,939.79
2018-06-19T10:52:36.729Z,939.77
2018-06-19T10:53:36.730Z,939.80
2018-06-19T10:54:36.754Z,939.78
2018-06-19T10:55:36.908Z,939.78
2018-06-19T10:56:36.780Z,939.81
2018-06-19T10:57:36.809Z,939.78
2018-06-19T10:58:36.825Z,939.82
2018-06-19T10:59:36.835Z,939.83
2018-06-19T11:00:36.983Z,939.82
2018-06-19T11:01:36.845Z,939.83
2018-06-19T11:02:36.883Z,939.86
2018-06-19T11:03:36.898Z,939.79
2018-06-19T11:04:36.894Z,939.85
2018-06-19T11:05:37.008Z,939.84
2018-06-19T11:06:36.953Z,939.80
2018-06-19T11:07:36.936Z,939.82
2018-06-19T11:08:36.963Z,939.85
2018-06-19T11:09:37.080Z,939.85
2018-06-19T11:10:37.082Z,939.88
2018-06-19T11:11:36.999Z,939.90
2018-06-19T11:12:37.029Z,939.93
2018-06-19T11:13:37.042Z,939.94
2018-06-19T11:14:37.044Z,939.92
2018-06-19T11:15:37.208Z,939.96
2018-06-19T11:16:37.082Z,939.99
2018-06-19T11:17:37.104Z,940.01
2018-06-19T11:18:37.105Z,940.01
2018-06-19T11:19:37.134Z,940.02
2018-06-19T11:20:37.250Z,940.08
2018-06-19T11:21:37.165Z,940.05
2018-06-19T11:22:37.187Z,940.06
2018-06-19T11:23:37.204Z,940.10
2018-06-19T11:24:37.214Z,940.05
2018-06-19T11:25:37.413Z,940.08
2018-06-19T11:26:37.263Z,940.09
2018-06-19T11:27:37.280Z,940.13
2018-06-19T11:28:37.275Z,940.16
2018-06-19T11:29:37.306Z,940.12
2018-06-19T11:30:37.419Z,940.18
2018-06-19T11:31:37.354Z,940.19
2018-06-19T11:32:37.358Z,940.17
2018-06-19T11:33:37.363Z,940.18
2018-06-19T11:34:37.398Z,940.21
2018-06-19T11:35:37.503Z,940.24
2018-06-19T11:36:37.488Z,940.24
2018-06-19T11:37:37.445Z,940.24
2018-06-19T11:38:37.469Z,940.23
2018-06-19T11:39:37.495Z,940.25
2018-06-19T11:40:37.648Z,940.26
2018-06-19T11:41:37.512Z,940.24
2018-06-19T11:42:37.531Z,940.25
2018-06-19T11:43:37.539Z,940.26
2018-06-19T11:44:37.627Z,940.24
2018-06-19T11:45:37.691Z,940.28
2018-06-19T11:46:37.596Z,940.29
2018-06-19T11:47:37.629Z,940.26
2018-06-19T11:48:37.639Z,940.29
2018-06-19T11:49:37.674Z,940.27
2018-06-19T11:50:37.815Z,940.29
2018-06-19T11:51:37.686Z,940.32
2018-06-19T11:52:37.717Z,940.28
2018-06-19T11:53:37.721Z,940.30
2018-06-19T11:54:37.751Z,940.28
2018-06-19T11:55:37.956Z,940.32
2018-06-19T11:56:37.775Z,940.35
2018-06-19T11:57:37.808Z,940.35
2018-06-19T11:58:37.809Z,940.35
2018-06-19T11:59:37.836Z,940.31
2018-06-19T12:00:37.909Z,940.30
2018-06-19T12:01:37.876Z,940.31
2018-06-19T12:02:37.973Z,940.28
2018-06-19T12:03:37.903Z,940.27
2018-06-19T12:04:37.930Z,940.24
2018-06-19T12:05:37.947Z,940.25
2018-06-19T12:06:37.971Z,940.29
2018-06-19T12:07:38.059Z,940.27
2018-06-19T12:08:37.976Z,940.26
2018-06-19T12:09:38.000Z,940.28
2018-06-19T12:10:38.007Z,940.30
2018-06-19T12:11:38.016Z,940.27
2018-06-19T12:12:38.159Z,940.33
2018-06-19T12:13:38.071Z,940.34
2018-06-19T12:14:38.078Z,940.31
2018-06-19T12:15:38.092Z,940.30
2018-06-19T12:16:38.093Z,940.31
2018-06-19T12:17:38.175Z,940.35
2018-06-19T12:18:38.298Z,940.37
2018-06-19T12:19:38.148Z,940.34
2018-06-19T12:20:38.180Z,940.41
2018-06-19T12:21:38.176Z,940.37
2018-06-19T12:22:38.207Z,940.40
2018-06-19T12:23:38.227Z,940.40
2018-06-19T12:24:38.293Z,940.42
2018-06-19T12:25:38.308Z,940.45
2018-06-19T12:26:38.288Z,940.41
2018-06-19T12:27:38.289Z,940.43
2018-06-19T12:28:38.371Z,940.44
2018-06-19T12:29:38.434Z,940.46